sensor_id;sensor_type;location;lat;lon;timestamp;temperature;humidity
31975;DHT22;18500;43.618;1.474;2023-04-02T00:00:31;7.00;1.00
31975;DHT22;18500;43.618;1.474;2023-04-02T00:03:03;6.90;1.00
31975;DHT22;18500;43.618;1.474;2023-04-02T00:08:03;7.00;1.00
31975;DHT22;18500;43.618;1.474;2023-04-02T00:10:44;7.00;1.00
31975;DHT22;18500;43.618;1.474;2023-04-02T00:15:41;7.00;1.00
31975;DHT22;18500;43.618;1.474;2023-04-02T00:18:13;7.00;1.00
31975;DHT22;18500;43.618;1.474;2023-04-02T00:20:41;7.00;1.00
31975;DHT22;18500;43.618;1.474;2023-04-02T00:23:11;7.00;1.00
31975;DHT22;18500;43.618;1.474;2023-04-02T00:25:39;7.00;1.00
31975;DHT22;18500;43.618;1.474;2023-04-02T00:28:17;6.90;1.00
31975;DHT22;18500;43.618;1.474;2023-04-02T00:30:53;7.00;1.00
31975;DHT22;18500;43.618;1.474;2023-04-02T00:33:26;7.10;1.00
31975;DHT22;18500;43.618;1.474;2023-04-02T00:35:53;7.10;1.00
31975;DHT22;18500;43.618;1.474;2023-04-02T00:38:27;7.20;1.00
31975;DHT22;18500;43.618;1.474;2023-04-02T00:40:57;7.20;1.00
31975;DHT22;18500;43.618;1.474;2023-04-02T00:43:27;7.20;1.00
31975;DHT22;18500;43.618;1.474;2023-04-02T00:45:57;7.20;1.00
31975;DHT22;18500;43.618;1.474;2023-04-02T00:51:33;7.10;1.00
31975;DHT22;18500;43.618;1.474;2023-04-02T00:54:03;7.20;1.00
31975;DHT22;18500;43.618;1.474;2023-04-02T00:56:39;7.20;1.00
31975;DHT22;18500;43.618;1.474;2023-04-02T01:02:41;7.20;1.00
31975;DHT22;18500;43.618;1.474;2023-04-02T01:04:51;7.20;1.00
31975;DHT22;18500;43.618;1.474;2023-04-02T01:07:26;7.20;1.00
31975;DHT22;18500;43.618;1.474;2023-04-02T01:23:17;7.20;1.00
31975;DHT22;18500;43.618;1.474;2023-04-02T01:29:01;7.20;1.00
31975;DHT22;18500;43.618;1.474;2023-04-02T01:31:29;7.20;1.00
31975;DHT22;18500;43.618;1.474;2023-04-02T01:33:57;7.20;1.00
31975;DHT22;18500;43.618;1.474;2023-04-02T01:42:24;7.20;1.00
31975;DHT22;18500;43.618;1.474;2023-04-02T01:45:12;7.20;1.00
31975;DHT22;18500;43.618;1.474;2023-04-02T01:47:39;7.20;1.00
31975;DHT22;18500;43.618;1.474;2023-04-02T01:52:41;7.30;1.00
31975;DHT22;18500;43.618;1.474;2023-04-02T01:55:08;7.30;1.00
31975;DHT22;18500;43.618;1.474;2023-04-02T01:57:41;7.30;1.00
31975;DHT22;18500;43.618;1.474;2023-04-02T02:00:10;7.30;1.00
31975;DHT22;18500;43.618;1.474;2023-04-02T02:02:38;7.30;1.00
31975;DHT22;18500;43.618;1.474;2023-04-02T02:05:10;7.30;1.00
31975;DHT22;18500;43.618;1.474;2023-04-02T02:07:38;7.30;1.00
31975;DHT22;18500;43.618;1.474;2023-04-02T02:10:04;7.40;1.00
31975;DHT22;18500;43.618;1.474;2023-04-02T02:12:30;7.40;1.00
31975;DHT22;18500;43.618;1.474;2023-04-02T02:14:56;7.20;1.00
31975;DHT22;18500;43.618;1.474;2023-04-02T02:17:29;7.00;1.00
31975;DHT22;18500;43.618;1.474;2023-04-02T02:19:59;7.00;1.00
31975;DHT22;18500;43.618;1.474;2023-04-02T02:22:32;7.10;1.00
31975;DHT22;18500;43.618;1.474;2023-04-02T02:25:02;7.10;1.00
31975;DHT22;18500;43.618;1.474;2023-04-02T02:27:55;7.00;1.00
31975;DHT22;18500;43.618;1.474;2023-04-02T02:30:29;7.10;1.00
31975;DHT22;18500;43.618;1.474;2023-04-02T02:33:01;7.10;1.00
31975;DHT22;18500;43.618;1.474;2023-04-02T02:35:53;7.20;1.00
31975;DHT22;18500;43.618;1.474;2023-04-02T02:41:02;7.20;1.00
31975;DHT22;18500;43.618;1.474;2023-04-02T02:43:32;7.20;1.00
31975;DHT22;18500;43.618;1.474;2023-04-02T02:45:59;7.00;1.00
31975;DHT22;18500;43.618;1.474;2023-04-02T02:48:34;7.10;1.00
31975;DHT22;18500;43.618;1.474;2023-04-02T02:51:05;7.10;1.00
31975;DHT22;18500;43.618;1.474;2023-04-02T02:53:32;7.00;1.00
31975;DHT22;18500;43.618;1.474;2023-04-02T02:55:59;7.00;1.00
31975;DHT22;18500;43.618;1.474;2023-04-02T02:58:29;6.90;1.00
31975;DHT22;18500;43.618;1.474;2023-04-02T03:00:57;7.00;1.00
31975;DHT22;18500;43.618;1.474;2023-04-02T03:03:26;7.10;1.00
31975;DHT22;18500;43.618;1.474;2023-04-02T03:05:56;7.20;1.00
31975;DHT22;18500;43.618;1.474;2023-04-02T03:08:45;7.10;1.00
31975;DHT22;18500;43.618;1.474;2023-04-02T03:11:38;7.10;1.00
31975;DHT22;18500;43.618;1.474;2023-04-02T03:14:27;7.20;1.00
31975;DHT22;18500;43.618;1.474;2023-04-02T03:17:02;7.20;1.00
31975;DHT22;18500;43.618;1.474;2023-04-02T03:19:37;7.30;1.00
31975;DHT22;18500;43.618;1.474;2023-04-02T03:25:32;7.30;1.00
31975;DHT22;18500;43.618;1.474;2023-04-02T03:28:00;7.30;1.00
31975;DHT22;18500;43.618;1.474;2023-04-02T03:30:45;7.30;1.00
31975;DHT22;18500;43.618;1.474;2023-04-02T03:33:20;7.30;1.00
31975;DHT22;18500;43.618;1.474;2023-04-02T03:35:57;7.30;1.00
31975;DHT22;18500;43.618;1.474;2023-04-02T03:38:28;7.40;1.00
31975;DHT22;18500;43.618;1.474;2023-04-02T03:41:16;7.40;1.00
31975;DHT22;18500;43.618;1.474;2023-04-02T03:43:46;7.40;1.00
31975;DHT22;18500;43.618;1.474;2023-04-02T03:52:10;7.30;1.00
31975;DHT22;18500;43.618;1.474;2023-04-02T03:54:37;7.20;1.00
31975;DHT22;18500;43.618;1.474;2023-04-02T03:57:03;7.20;1.00
31975;DHT22;18500;43.618;1.474;2023-04-02T03:59:40;7.20;1.00
31975;DHT22;18500;43.618;1.474;2023-04-02T04:02:26;7.20;1.00
31975;DHT22;18500;43.618;1.474;2023-04-02T04:04:57;7.20;1.00
31975;DHT22;18500;43.618;1.474;2023-04-02T04:07:38;7.30;1.00
31975;DHT22;18500;43.618;1.474;2023-04-02T04:10:06;7.30;1.00
31975;DHT22;18500;43.618;1.474;2023-04-02T04:12:35;7.30;1.00
31975;DHT22;18500;43.618;1.474;2023-04-02T04:20:56;7.40;1.00
31975;DHT22;18500;43.618;1.474;2023-04-02T04:23:29;7.50;1.00
31975;DHT22;18500;43.618;1.474;2023-04-02T04:26:19;7.50;1.00
31975;DHT22;18500;43.618;1.474;2023-04-02T04:29:04;7.50;1.00
31975;DHT22;18500;43.618;1.474;2023-04-02T04:31:48;7.60;1.00
31975;DHT22;18500;43.618;1.474;2023-04-02T04:34:22;7.60;1.00
31975;DHT22;18500;43.618;1.474;2023-04-02T04:36:59;7.70;1.00
31975;DHT22;18500;43.618;1.474;2023-04-02T04:39:39;7.70;1.00
31975;DHT22;18500;43.618;1.474;2023-04-02T04:42:16;7.60;1.00
31975;DHT22;18500;43.618;1.474;2023-04-02T04:47:32;7.60;1.00
31975;DHT22;18500;43.618;1.474;2023-04-02T04:50:12;7.70;1.00
31975;DHT22;18500;43.618;1.474;2023-04-02T04:52:41;7.70;1.00
31975;DHT22;18500;43.618;1.474;2023-04-02T04:58:47;7.70;1.00
31975;DHT22;18500;43.618;1.474;2023-04-02T05:09:33;7.70;1.00
31975;DHT22;18500;43.618;1.474;2023-04-02T05:14:52;7.70;1.00
31975;DHT22;18500;43.618;1.474;2023-04-02T05:17:26;7.60;1.00
31975;DHT22;18500;43.618;1.474;2023-04-02T05:20:01;7.50;1.00
31975;DHT22;18500;43.618;1.474;2023-04-02T05:22:41;7.50;1.00
31975;DHT22;18500;43.618;1.474;2023-04-02T05:25:26;7.40;1.00
31975;DHT22;18500;43.618;1.474;2023-04-02T05:33:12;7.50;1.00
31975;DHT22;18500;43.618;1.474;2023-04-02T05:35:43;7.60;1.00
31975;DHT22;18500;43.618;1.474;2023-04-02T05:38:20;7.60;1.00
31975;DHT22;18500;43.618;1.474;2023-04-02T05:40:50;7.60;1.00
31975;DHT22;18500;43.618;1.474;2023-04-02T05:43:19;7.70;1.00
31975;DHT22;18500;43.618;1.474;2023-04-02T05:45:54;7.70;1.00
31975;DHT22;18500;43.618;1.474;2023-04-02T05:48:26;7.80;1.00
31975;DHT22;18500;43.618;1.474;2023-04-02T05:50:56;7.80;1.00
31975;DHT22;18500;43.618;1.474;2023-04-02T05:53:46;7.80;1.00
31975;DHT22;18500;43.618;1.474;2023-04-02T05:58:59;7.80;1.00
31975;DHT22;18500;43.618;1.474;2023-04-02T06:01:38;7.80;1.00
31975;DHT22;18500;43.618;1.474;2023-04-02T06:06:51;7.80;1.00
31975;DHT22;18500;43.618;1.474;2023-04-02T06:14:38;7.90;1.00
31975;DHT22;18500;43.618;1.474;2023-04-02T06:17:04;7.90;1.00
31975;DHT22;18500;43.618;1.474;2023-04-02T06:19:33;7.90;1.00
31975;DHT22;18500;43.618;1.474;2023-04-02T06:24:44;8.00;1.00
31975;DHT22;18500;43.618;1.474;2023-04-02T06:27:14;8.10;1.00
31975;DHT22;18500;43.618;1.474;2023-04-02T06:29:44;8.10;1.00
31975;DHT22;18500;43.618;1.474;2023-04-02T06:32:12;8.20;1.00
31975;DHT22;18500;43.618;1.474;2023-04-02T06:34:39;8.20;1.00
31975;DHT22;18500;43.618;1.474;2023-04-02T06:37:29;8.20;1.00
31975;DHT22;18500;43.618;1.474;2023-04-02T06:39:57;8.30;1.00
31975;DHT22;18500;43.618;1.474;2023-04-02T06:42:27;8.30;1.00
31975;DHT22;18500;43.618;1.474;2023-04-02T06:44:54;8.40;1.00
31975;DHT22;18500;43.618;1.474;2023-04-02T06:47:47;8.40;1.00
31975;DHT22;18500;43.618;1.474;2023-04-02T06:50:47;8.40;1.00
31975;DHT22;18500;43.618;1.474;2023-04-02T06:53:26;8.50;1.00
31975;DHT22;18500;43.618;1.474;2023-04-02T06:58:56;8.80;1.00
31975;DHT22;18500;43.618;1.474;2023-04-02T07:01:25;9.00;1.00
31975;DHT22;18500;43.618;1.474;2023-04-02T07:03:53;9.10;1.00
31975;DHT22;18500;43.618;1.474;2023-04-02T07:06:20;9.20;1.00
31975;DHT22;18500;43.618;1.474;2023-04-02T07:08:47;9.20;1.00
31975;DHT22;18500;43.618;1.474;2023-04-02T07:11:17;9.20;1.00
31975;DHT22;18500;43.618;1.474;2023-04-02T07:13:44;9.30;1.00
31975;DHT22;18500;43.618;1.474;2023-04-02T07:16:14;9.20;1.00
31975;DHT22;18500;43.618;1.474;2023-04-02T07:18:41;9.30;1.00
31975;DHT22;18500;43.618;1.474;2023-04-02T07:21:07;9.30;1.00
31975;DHT22;18500;43.618;1.474;2023-04-02T07:23:32;9.30;1.00
31975;DHT22;18500;43.618;1.474;2023-04-02T07:25:58;9.30;1.00
31975;DHT22;18500;43.618;1.474;2023-04-02T07:28:24;9.20;1.00
31975;DHT22;18500;43.618;1.474;2023-04-02T07:30:51;9.30;1.00
31975;DHT22;18500;43.618;1.474;2023-04-02T07:33:20;9.20;1.00
31975;DHT22;18500;43.618;1.474;2023-04-02T07:35:46;9.20;1.00
31975;DHT22;18500;43.618;1.474;2023-04-02T07:38:12;9.30;1.00
31975;DHT22;18500;43.618;1.474;2023-04-02T07:40:38;9.30;1.00
31975;DHT22;18500;43.618;1.474;2023-04-02T07:43:05;9.40;1.00
31975;DHT22;18500;43.618;1.474;2023-04-02T07:45:30;9.50;1.00
31975;DHT22;18500;43.618;1.474;2023-04-02T07:47:56;9.60;1.00
31975;DHT22;18500;43.618;1.474;2023-04-02T07:50:22;9.50;1.00
31975;DHT22;18500;43.618;1.474;2023-04-02T07:52:48;9.50;1.00
31975;DHT22;18500;43.618;1.474;2023-04-02T07:55:14;9.50;1.00
31975;DHT22;18500;43.618;1.474;2023-04-02T07:57:48;9.50;1.00
31975;DHT22;18500;43.618;1.474;2023-04-02T08:00:15;9.60;1.00
31975;DHT22;18500;43.618;1.474;2023-04-02T08:02:41;9.70;1.00
31975;DHT22;18500;43.618;1.474;2023-04-02T08:05:07;9.70;1.00
31975;DHT22;18500;43.618;1.474;2023-04-02T08:07:33;9.60;1.00
31975;DHT22;18500;43.618;1.474;2023-04-02T08:10:00;9.70;1.00
31975;DHT22;18500;43.618;1.474;2023-04-02T08:12:25;9.70;1.00
31975;DHT22;18500;43.618;1.474;2023-04-02T08:14:51;9.60;1.00
31975;DHT22;18500;43.618;1.474;2023-04-02T08:17:17;9.70;1.00
31975;DHT22;18500;43.618;1.474;2023-04-02T08:19:43;9.90;1.00
31975;DHT22;18500;43.618;1.474;2023-04-02T08:22:09;10.00;1.00
31975;DHT22;18500;43.618;1.474;2023-04-02T08:24:35;10.10;1.00
31975;DHT22;18500;43.618;1.474;2023-04-02T08:27:01;10.30;1.00
31975;DHT22;18500;43.618;1.474;2023-04-02T08:29:27;10.40;1.00
31975;DHT22;18500;43.618;1.474;2023-04-02T08:31:57;10.30;1.00
31975;DHT22;18500;43.618;1.474;2023-04-02T08:34:23;10.10;1.00
31975;DHT22;18500;43.618;1.474;2023-04-02T08:36:48;10.30;1.00
31975;DHT22;18500;43.618;1.474;2023-04-02T08:39:14;10.50;1.00
31975;DHT22;18500;43.618;1.474;2023-04-02T08:41:48;10.50;1.00
31975;DHT22;18500;43.618;1.474;2023-04-02T08:44:21;10.40;1.00
31975;DHT22;18500;43.618;1.474;2023-04-02T08:46:55;10.60;1.00
31975;DHT22;18500;43.618;1.474;2023-04-02T08:49:38;10.80;1.00
31975;DHT22;18500;43.618;1.474;2023-04-02T08:52:04;11.00;1.00
31975;DHT22;18500;43.618;1.474;2023-04-02T08:54:32;10.90;1.00
31975;DHT22;18500;43.618;1.474;2023-04-02T08:59:46;11.20;1.00
31975;DHT22;18500;43.618;1.474;2023-04-02T09:04:50;11.30;1.00
31975;DHT22;18500;43.618;1.474;2023-04-02T09:07:16;11.30;1.00
31975;DHT22;18500;43.618;1.474;2023-04-02T09:09:42;11.60;1.00
31975;DHT22;18500;43.618;1.474;2023-04-02T09:12:26;11.70;1.00
31975;DHT22;18500;43.618;1.474;2023-04-02T09:17:38;11.60;1.00
31975;DHT22;18500;43.618;1.474;2023-04-02T09:20:22;11.70;1.00
31975;DHT22;18500;43.618;1.474;2023-04-02T09:22:49;11.70;1.00
31975;DHT22;18500;43.618;1.474;2023-04-02T09:25:27;11.40;1.00
31975;DHT22;18500;43.618;1.474;2023-04-02T09:27:56;11.20;1.00
31975;DHT22;18500;43.618;1.474;2023-04-02T09:32:57;11.50;1.00
31975;DHT22;18500;43.618;1.474;2023-04-02T09:35:30;11.40;1.00
31975;DHT22;18500;43.618;1.474;2023-04-02T09:38:10;11.70;1.00
31975;DHT22;18500;43.618;1.474;2023-04-02T09:43:23;11.50;1.00
31975;DHT22;18500;43.618;1.474;2023-04-02T09:46:17;11.10;99.90
31975;DHT22;18500;43.618;1.474;2023-04-02T09:48:51;11.10;1.00
31975;DHT22;18500;43.618;1.474;2023-04-02T09:51:21;11.30;1.00
31975;DHT22;18500;43.618;1.474;2023-04-02T09:56:34;11.50;1.00
31975;DHT22;18500;43.618;1.474;2023-04-02T09:59:20;12.10;1.00
31975;DHT22;18500;43.618;1.474;2023-04-02T10:04:38;11.70;1.00
31975;DHT22;18500;43.618;1.474;2023-04-02T10:07:42;11.40;1.00
31975;DHT22;18500;43.618;1.474;2023-04-02T10:10:30;11.30;99.90
31975;DHT22;18500;43.618;1.474;2023-04-02T10:13:07;10.50;1.00
31975;DHT22;18500;43.618;1.474;2023-04-02T10:15:45;10.40;1.00
31975;DHT22;18500;43.618;1.474;2023-04-02T10:21:07;11.10;1.00
31975;DHT22;18500;43.618;1.474;2023-04-02T10:23:35;11.30;99.90
31975;DHT22;18500;43.618;1.474;2023-04-02T10:40:05;11.20;1.00
31975;DHT22;18500;43.618;1.474;2023-04-02T10:45:30;11.60;1.00
31975;DHT22;18500;43.618;1.474;2023-04-02T10:48:15;12.20;1.00
31975;DHT22;18500;43.618;1.474;2023-04-02T10:50:58;12.90;1.00
31975;DHT22;18500;43.618;1.474;2023-04-02T10:56:11;12.80;1.00
31975;DHT22;18500;43.618;1.474;2023-04-02T10:58:46;12.90;1.00
31975;DHT22;18500;43.618;1.474;2023-04-02T11:01:19;13.20;1.00
31975;DHT22;18500;43.618;1.474;2023-04-02T11:03:50;13.10;1.00
31975;DHT22;18500;43.618;1.474;2023-04-02T11:06:23;12.70;1.00
31975;DHT22;18500;43.618;1.474;2023-04-02T11:08:54;11.40;99.90
31975;DHT22;18500;43.618;1.474;2023-04-02T11:11:29;10.30;1.00
31975;DHT22;18500;43.618;1.474;2023-04-02T11:16:39;10.60;99.90
31975;DHT22;18500;43.618;1.474;2023-04-02T11:22:00;11.40;1.00
31975;DHT22;18500;43.618;1.474;2023-04-02T11:24:42;12.20;99.10
31975;DHT22;18500;43.618;1.474;2023-04-02T11:37:41;11.00;1.00
31975;DHT22;18500;43.618;1.474;2023-04-02T11:42:47;11.70;99.90
31975;DHT22;18500;43.618;1.474;2023-04-02T11:50:34;11.20;99.90
31975;DHT22;18500;43.618;1.474;2023-04-02T11:55:45;11.30;1.00
31975;DHT22;18500;43.618;1.474;2023-04-02T12:03:50;12.10;28.50
31975;DHT22;18500;43.618;1.474;2023-04-02T12:09:20;12.80;99.90
31975;DHT22;18500;43.618;1.474;2023-04-02T12:11:44;13.20;1.00
31975;DHT22;18500;43.618;1.474;2023-04-02T12:16:56;13.30;87.30
31975;DHT22;18500;43.618;1.474;2023-04-02T12:19:23;13.60;26.20
31975;DHT22;18500;43.618;1.474;2023-04-02T12:21:51;13.10;3.50
31975;DHT22;18500;43.618;1.474;2023-04-02T12:24:22;11.00;99.90
31975;DHT22;18500;43.618;1.474;2023-04-02T12:27:06;10.70;99.90
31975;DHT22;18500;43.618;1.474;2023-04-02T12:29:33;10.90;1.00
31975;DHT22;18500;43.618;1.474;2023-04-02T12:31:59;11.50;99.90
31975;DHT22;18500;43.618;1.474;2023-04-02T12:34:27;11.40;99.90
31975;DHT22;18500;43.618;1.474;2023-04-02T12:36:58;11.20;1.00
31975;DHT22;18500;43.618;1.474;2023-04-02T12:39:25;11.40;99.90
31975;DHT22;18500;43.618;1.474;2023-04-02T12:41:51;12.00;1.00
31975;DHT22;18500;43.618;1.474;2023-04-02T12:44:18;14.10;99.90
31975;DHT22;18500;43.618;1.474;2023-04-02T12:46:46;17.70;99.90
31975;DHT22;18500;43.618;1.474;2023-04-02T12:49:38;18.70;99.90
31975;DHT22;18500;43.618;1.474;2023-04-02T12:52:16;14.60;99.90
31975;DHT22;18500;43.618;1.474;2023-04-02T12:54:59;14.50;99.90
31975;DHT22;18500;43.618;1.474;2023-04-02T13:02:25;16.20;99.90
31975;DHT22;18500;43.618;1.474;2023-04-02T13:04:56;18.50;99.90
31975;DHT22;18500;43.618;1.474;2023-04-02T13:07:28;18.20;99.90
31975;DHT22;18500;43.618;1.474;2023-04-02T13:10:05;15.80;99.90
31975;DHT22;18500;43.618;1.474;2023-04-02T13:12:47;14.60;99.90
31975;DHT22;18500;43.618;1.474;2023-04-02T13:15:27;12.50;99.90
31975;DHT22;18500;43.618;1.474;2023-04-02T13:25:45;14.10;1.00
31975;DHT22;18500;43.618;1.474;2023-04-02T13:28:11;15.80;99.90
31975;DHT22;18500;43.618;1.474;2023-04-02T13:30:37;14.40;1.00
31975;DHT22;18500;43.618;1.474;2023-04-02T13:33:02;15.40;99.90
31975;DHT22;18500;43.618;1.474;2023-04-02T13:35:28;17.20;1.00
31975;DHT22;18500;43.618;1.474;2023-04-02T13:37:53;19.80;1.00
31975;DHT22;18500;43.618;1.474;2023-04-02T13:40:19;21.70;99.90
31975;DHT22;18500;43.618;1.474;2023-04-02T13:42:45;20.40;99.90
31975;DHT22;18500;43.618;1.474;2023-04-02T13:45:33;17.90;99.90
31975;DHT22;18500;43.618;1.474;2023-04-02T13:48:00;15.60;22.20
31975;DHT22;18500;43.618;1.474;2023-04-02T13:50:29;14.50;1.50
31975;DHT22;18500;43.618;1.474;2023-04-02T13:52:57;11.40;99.90
31975;DHT22;18500;43.618;1.474;2023-04-02T13:55:27;11.00;99.90
31975;DHT22;18500;43.618;1.474;2023-04-02T13:57:54;11.50;99.90
31975;DHT22;18500;43.618;1.474;2023-04-02T14:00:20;11.30;91.10
31975;DHT22;18500;43.618;1.474;2023-04-02T14:02:49;11.30;99.90
31975;DHT22;18500;43.618;1.474;2023-04-02T14:22:36;12.40;11.80
31975;DHT22;18500;43.618;1.474;2023-04-02T14:30:40;15.20;1.00
31975;DHT22;18500;43.618;1.474;2023-04-02T14:41:50;15.50;1.00
31975;DHT22;18500;43.618;1.474;2023-04-02T14:44:21;14.70;1.00
31975;DHT22;18500;43.618;1.474;2023-04-02T14:46:49;14.20;1.00
31975;DHT22;18500;43.618;1.474;2023-04-02T14:49:24;14.70;1.00
31975;DHT22;18500;43.618;1.474;2023-04-02T14:51:58;15.20;1.00
31975;DHT22;18500;43.618;1.474;2023-04-02T14:54:47;15.60;1.00
31975;DHT22;18500;43.618;1.474;2023-04-02T14:57:35;15.20;1.00
31975;DHT22;18500;43.618;1.474;2023-04-02T15:00:06;15.00;1.00
31975;DHT22;18500;43.618;1.474;2023-04-02T15:03:01;15.40;1.00
31975;DHT22;18500;43.618;1.474;2023-04-02T15:05:41;15.40;1.00
31975;DHT22;18500;43.618;1.474;2023-04-02T15:13:38;15.30;1.00
31975;DHT22;18500;43.618;1.474;2023-04-02T15:16:17;14.90;1.00
31975;DHT22;18500;43.618;1.474;2023-04-02T15:18:44;14.10;1.00
31975;DHT22;18500;43.618;1.474;2023-04-02T15:29:06;10.50;99.90
31975;DHT22;18500;43.618;1.474;2023-04-02T15:31:36;11.70;1.00
31975;DHT22;18500;43.618;1.474;2023-04-02T15:36:47;11.90;99.90
31975;DHT22;18500;43.618;1.474;2023-04-02T15:39:24;11.90;99.90
31975;DHT22;18500;43.618;1.474;2023-04-02T15:42:14;11.90;99.90
31975;DHT22;18500;43.618;1.474;2023-04-02T15:53:00;12.30;99.90
31975;DHT22;18500;43.618;1.474;2023-04-02T15:55:49;12.40;99.90
31975;DHT22;18500;43.618;1.474;2023-04-02T15:58:24;12.50;99.90
31975;DHT22;18500;43.618;1.474;2023-04-02T16:06:29;12.50;99.90
31975;DHT22;18500;43.618;1.474;2023-04-02T16:11:41;12.10;99.90
31975;DHT22;18500;43.618;1.474;2023-04-02T16:16:39;11.90;99.90
31975;DHT22;18500;43.618;1.474;2023-04-02T16:21:35;12.10;99.90
31975;DHT22;18500;43.618;1.474;2023-04-02T16:24:08;12.00;99.90
31975;DHT22;18500;43.618;1.474;2023-04-02T16:27:11;12.20;99.90
31975;DHT22;18500;43.618;1.474;2023-04-02T16:41:07;12.80;99.90
31975;DHT22;18500;43.618;1.474;2023-04-02T16:47:22;12.20;99.90
31975;DHT22;18500;43.618;1.474;2023-04-02T16:49:37;12.10;99.90
31975;DHT22;18500;43.618;1.474;2023-04-02T17:01:18;12.10;99.90
31975;DHT22;18500;43.618;1.474;2023-04-02T17:08:44;12.00;99.90
31975;DHT22;18500;43.618;1.474;2023-04-02T17:11:22;11.70;99.90
31975;DHT22;18500;43.618;1.474;2023-04-02T17:14:05;11.60;99.90
31975;DHT22;18500;43.618;1.474;2023-04-02T17:16:45;11.40;99.90
31975;DHT22;18500;43.618;1.474;2023-04-02T17:19:13;11.40;99.90
31975;DHT22;18500;43.618;1.474;2023-04-02T17:21:45;11.00;39.50
31975;DHT22;18500;43.618;1.474;2023-04-02T17:24:40;11.00;1.00
31975;DHT22;18500;43.618;1.474;2023-04-02T17:29:38;11.30;1.00
31975;DHT22;18500;43.618;1.474;2023-04-02T17:32:17;12.20;99.90
31975;DHT22;18500;43.618;1.474;2023-04-02T17:34:44;11.80;99.90
31975;DHT22;18500;43.618;1.474;2023-04-02T17:37:28;11.60;99.90
31975;DHT22;18500;43.618;1.474;2023-04-02T17:42:46;11.70;99.90
31975;DHT22;18500;43.618;1.474;2023-04-02T17:48:06;11.20;99.90
31975;DHT22;18500;43.618;1.474;2023-04-02T17:51:07;11.10;99.90
31975;DHT22;18500;43.618;1.474;2023-04-02T18:04:52;11.30;99.90
31975;DHT22;18500;43.618;1.474;2023-04-02T18:12:44;11.60;99.90
31975;DHT22;18500;43.618;1.474;2023-04-02T18:18:22;11.60;99.90
31975;DHT22;18500;43.618;1.474;2023-04-02T18:26:34;11.50;99.90
31975;DHT22;18500;43.618;1.474;2023-04-02T18:29:41;11.50;99.90
31975;DHT22;18500;43.618;1.474;2023-04-02T18:32:37;11.40;99.90
31975;DHT22;18500;43.618;1.474;2023-04-02T18:43:40;11.30;99.90
31975;DHT22;18500;43.618;1.474;2023-04-02T18:46:23;11.30;99.90
31975;DHT22;18500;43.618;1.474;2023-04-02T18:51:33;11.40;99.90
31975;DHT22;18500;43.618;1.474;2023-04-02T18:54:38;11.40;99.90
31975;DHT22;18500;43.618;1.474;2023-04-02T18:57:21;11.40;99.90
31975;DHT22;18500;43.618;1.474;2023-04-02T19:02:32;11.30;99.90
31975;DHT22;18500;43.618;1.474;2023-04-02T19:07:38;11.30;99.90
31975;DHT22;18500;43.618;1.474;2023-04-02T19:12:55;11.20;99.90
31975;DHT22;18500;43.618;1.474;2023-04-02T19:15:28;11.20;99.90
31975;DHT22;18500;43.618;1.474;2023-04-02T19:18:14;11.10;99.90
31975;DHT22;18500;43.618;1.474;2023-04-02T19:20:55;11.10;99.90
31975;DHT22;18500;43.618;1.474;2023-04-02T19:26:05;11.10;99.90
31975;DHT22;18500;43.618;1.474;2023-04-02T19:31:48;11.10;99.90
31975;DHT22;18500;43.618;1.474;2023-04-02T19:37:09;11.10;99.90
31975;DHT22;18500;43.618;1.474;2023-04-02T19:44:59;10.90;99.90
31975;DHT22;18500;43.618;1.474;2023-04-02T19:47:26;10.80;99.90
31975;DHT22;18500;43.618;1.474;2023-04-02T19:49:51;10.80;99.90
31975;DHT22;18500;43.618;1.474;2023-04-02T19:52:17;10.80;99.90
31975;DHT22;18500;43.618;1.474;2023-04-02T19:54:43;10.80;99.90
31975;DHT22;18500;43.618;1.474;2023-04-02T19:57:18;10.80;99.90
31975;DHT22;18500;43.618;1.474;2023-04-02T19:59:44;10.70;99.90
31975;DHT22;18500;43.618;1.474;2023-04-02T20:02:10;10.70;99.90
31975;DHT22;18500;43.618;1.474;2023-04-02T20:04:36;10.70;99.90
31975;DHT22;18500;43.618;1.474;2023-04-02T20:07:02;10.70;99.90
31975;DHT22;18500;43.618;1.474;2023-04-02T20:09:27;10.70;99.90
31975;DHT22;18500;43.618;1.474;2023-04-02T20:11:54;10.60;99.90
31975;DHT22;18500;43.618;1.474;2023-04-02T20:14:20;10.50;99.90
31975;DHT22;18500;43.618;1.474;2023-04-02T20:16:45;10.60;99.90
31975;DHT22;18500;43.618;1.474;2023-04-02T20:19:11;10.50;99.90
31975;DHT22;18500;43.618;1.474;2023-04-02T20:21:37;10.60;99.90
31975;DHT22;18500;43.618;1.474;2023-04-02T20:24:06;10.60;99.90
31975;DHT22;18500;43.618;1.474;2023-04-02T20:26:33;10.70;99.90
31975;DHT22;18500;43.618;1.474;2023-04-02T20:29:00;10.80;99.90
31975;DHT22;18500;43.618;1.474;2023-04-02T20:31:26;10.70;99.90
31975;DHT22;18500;43.618;1.474;2023-04-02T20:33:56;10.70;99.90
31975;DHT22;18500;43.618;1.474;2023-04-02T20:36:22;10.70;99.90
31975;DHT22;18500;43.618;1.474;2023-04-02T20:38:49;10.60;99.90
31975;DHT22;18500;43.618;1.474;2023-04-02T20:41:16;10.60;99.90
31975;DHT22;18500;43.618;1.474;2023-04-02T20:43:43;10.50;99.90
31975;DHT22;18500;43.618;1.474;2023-04-02T20:46:10;10.60;99.90
31975;DHT22;18500;43.618;1.474;2023-04-02T20:48:37;10.70;99.90
31975;DHT22;18500;43.618;1.474;2023-04-02T20:51:04;10.70;99.90
31975;DHT22;18500;43.618;1.474;2023-04-02T20:53:32;10.70;99.90
31975;DHT22;18500;43.618;1.474;2023-04-02T20:56:06;10.60;99.90
31975;DHT22;18500;43.618;1.474;2023-04-02T20:58:33;10.60;99.90
31975;DHT22;18500;43.618;1.474;2023-04-02T21:01:10;10.70;99.90
31975;DHT22;18500;43.618;1.474;2023-04-02T21:03:37;10.70;99.90
31975;DHT22;18500;43.618;1.474;2023-04-02T21:06:05;10.60;99.90
31975;DHT22;18500;43.618;1.474;2023-04-02T21:08:31;10.60;99.90
31975;DHT22;18500;43.618;1.474;2023-04-02T21:11:03;10.60;99.90
31975;DHT22;18500;43.618;1.474;2023-04-02T21:13:30;10.60;99.90
31975;DHT22;18500;43.618;1.474;2023-04-02T21:15:56;10.60;99.90
31975;DHT22;18500;43.618;1.474;2023-04-02T21:18:22;10.50;99.90
31975;DHT22;18500;43.618;1.474;2023-04-02T21:20:59;10.50;99.90
31975;DHT22;18500;43.618;1.474;2023-04-02T21:23:25;10.50;99.90
31975;DHT22;18500;43.618;1.474;2023-04-02T21:26:02;10.40;99.90
31975;DHT22;18500;43.618;1.474;2023-04-02T21:28:31;10.40;99.90
31975;DHT22;18500;43.618;1.474;2023-04-02T21:31:26;10.30;99.90
31975;DHT22;18500;43.618;1.474;2023-04-02T21:33:55;10.20;99.90
31975;DHT22;18500;43.618;1.474;2023-04-02T21:36:32;10.30;99.90
31975;DHT22;18500;43.618;1.474;2023-04-02T21:39:00;10.20;99.90
31975;DHT22;18500;43.618;1.474;2023-04-02T21:41:27;10.20;63.70
31975;DHT22;18500;43.618;1.474;2023-04-02T21:43:54;10.20;1.00
31975;DHT22;18500;43.618;1.474;2023-04-02T21:46:22;10.20;1.00
31975;DHT22;18500;43.618;1.474;2023-04-02T21:48:50;10.10;1.00
31975;DHT22;18500;43.618;1.474;2023-04-02T21:51:19;10.00;1.00
31975;DHT22;18500;43.618;1.474;2023-04-02T21:53:45;10.00;99.90
31975;DHT22;18500;43.618;1.474;2023-04-02T21:56:13;10.00;99.90
31975;DHT22;18500;43.618;1.474;2023-04-02T21:58:40;9.90;99.90
31975;DHT22;18500;43.618;1.474;2023-04-02T22:01:06;9.90;1.00
31975;DHT22;18500;43.618;1.474;2023-04-02T22:03:31;9.90;1.00
31975;DHT22;18500;43.618;1.474;2023-04-02T22:06:02;9.80;99.90
31975;DHT22;18500;43.618;1.474;2023-04-02T22:08:29;9.70;37.30